Air Navigation Services of Czech Republic  
Last data update:  18.02.2020 03:44:29 UTC česká verze
   METEO Page displayed:  18.02.2020 03:44:28 UTC  
help
METAR EDDB 180320Z 24015KT 9999 BKN032 07/03 Q1014 NOSIG=
METAR EDDC 180320Z 24014KT 210V280 9999 SCT040 06/03 Q1017=
METAR EDDE 180320Z 25021KT 9999 FEW023 05/02 Q1017=
METAR EDDF 180320Z 20014KT 9999 FEW025 BKN032 07/03 Q1022 TEMPO 21015G25KT=
METAR EDDM 180320Z 25017KT 9999 FEW025 05/01 Q1025 TEMPO 27015G25KT=
METAR EDDN 180320Z 25011KT 9999 FEW026 BKN049 06/02 Q1023=
METAR EDDP 180320Z 24016KT CAVOK 06/02 Q1017 TEMPO 24015G30KT=
METAR EDDT 180320Z 24016KT 9999 BKN036 07/03 Q1014=
METAR EDQM NIL
METAR EPBY 180330Z 23009KT CAVOK 04/02 Q1012=
METAR EPGD 180330Z 25012KT CAVOK 04/01 Q1009=
METAR EPKK 180330Z 24009KT 9999 FEW020 BKN037 07/06 Q1018=
METAR EPKT 180330Z 24009KT 9999 BKN030 07/04 Q1017=
METAR EPLL 180330Z 23008KT 200V260 CAVOK 06/02 Q1015=
METAR EPPO 180330Z 24008KT 9999 FEW037 05/02 Q1014=
METAR EPRZ 180330Z 24007KT 7000 -RA BKN020 06/05 Q1018=
METAR EPWA 180330Z 26010KT CAVOK 07/03 Q1014 NOSIG=
METAR EPWR 180330Z 26009KT CAVOK 07/01 Q1017=
METAR LHBP 180330Z 33004KT 8000 NSC 03/02 Q1019 NOSIG=
METAR LHSM 180315Z AUTO 30005KT 7000 NSC 07/04 Q1021=
METAR LKBC 180330Z AUTO 24008KT 9999 SCT032 BKN098 BKN170 06/02 Q1021=
METAR LKCV 180330Z 26007KT CAVOK 07/03 Q1020 NOSIG RMK BLU BLU=
METAR LKKB 180330Z 22010KT 9999 FEW028 BKN100 06/02 Q1019 RMK BLU=
METAR LKKU NIL
SPECI LKKV 180304Z 24008KT 190V280 9999 -RA BKN018 04/02 Q1018 RMK REG QNH 1016=
METAR LKLN 180330Z AUTO 22008KT 9999 BKN025 05/03 Q1021=
METAR LKMT 180330Z 21010KT CAVOK 07/04 Q1019 NOSIG RMK REG QNH 1016=
METAR LKNA 180330Z 29007KT 9999 BKN025 05/02 Q1021 RMK BLU=
METAR LKPD 180330Z 23007KT 9999 SCT036 BKN150 07/03 Q1020 RMK BLACK=
METAR LKPJ 180330Z AUTO 28009KT 9999 OVC120 08/02 Q1020=
METAR LKPR 180330Z 22012KT 9999 FEW020 05/02 Q1019 NOSIG RMK REG QNH 1016=
METAR LKTB 180330Z 28012KT CAVOK 08/03 Q1021 NOSIG RMK REG QNH 1016=
METAR LKVO NIL
METAR LOWI 180320Z AUTO VRB02KT 9999 FEW030 BKN080 05/03 Q1025=
METAR LOWL 180320Z AUTO 26013KT 9999 -RA FEW018 SCT030 BKN038 07/05 Q1024=
METAR LOWS 180320Z AUTO 29012G22KT 9999 FEW050 BKN060 08/M01 Q1025=
METAR LOWW 180320Z 29013KT CAVOK 10/05 Q1022 NOSIG=
METAR LZIB 180330Z 32006KT 9999 -RA FEW015 BKN100 09/06 Q1021=
METAR LZKZ 180330Z 01003KT CAVOK 05/02 Q1018=
METAR LZMC 180300Z 01002KT 4000 -RA BR FEW009 BKN050 OVC080 07/06 Q1022=
METAR LZPP 180330Z AUTO VRB02KT 5000 BR OVC076/// 05/04 Q1021 REUP=
METAR LZSL 180330Z VRB02KT 9999 OVC038 03/01 Q1020=
METAR LZTT 180330Z 26007KT 240V300 9999 -RA FEW026 SCT040 OVC080 03/02 Q1018=
METAR LZZI 180330Z VRB02KT 9999 FEW030 BKN085 04/04 Q1020=